createdAt,value
2023-02-18T00:01:53.269Z,5.00
2023-02-18T00:04:55.198Z,5.20
2023-02-18T00:07:56.867Z,5.30
2023-02-18T00:10:58.422Z,5.70
2023-02-18T00:14:01.394Z,5.80
2023-02-18T00:17:02.968Z,5.80
2023-02-18T00:20:06.798Z,5.40
2023-02-18T00:23:08.506Z,6.00
2023-02-18T00:26:15.318Z,5.70
2023-02-18T00:29:16.957Z,5.70
2023-02-18T00:32:18.757Z,5.70
2023-02-18T00:38:21.710Z,5.50
2023-02-18T00:41:24.805Z,4.90
2023-02-18T00:44:26.411Z,5.20
2023-02-18T00:47:27.957Z,5.30
2023-02-18T00:53:31.454Z,5.80
2023-02-18T00:56:33.260Z,4.90
2023-02-18T00:59:34.778Z,5.50
2023-02-18T01:02:36.719Z,4.70
2023-02-18T01:05:39.735Z,5.30
2023-02-18T01:08:41.664Z,4.80
2023-02-18T01:11:43.262Z,4.70
2023-02-18T01:14:44.857Z,4.70
2023-02-18T01:20:48.447Z,5.60
2023-02-18T01:23:50.197Z,6.90
2023-02-18T01:26:52.290Z,6.70
2023-02-18T01:29:53.987Z,5.20
2023-02-18T01:32:59.239Z,4.10
2023-02-18T01:36:00.933Z,4.40
2023-02-18T01:39:02.620Z,3.90
2023-02-18T01:42:04.328Z,4.30
2023-02-18T01:45:34.430Z,4.70
2023-02-18T01:49:01.024Z,4.80
2023-02-18T01:52:07.112Z,4.10
2023-02-18T01:55:08.818Z,4.20
2023-02-18T01:58:11.775Z,4.20
2023-02-18T02:01:13.485Z,4.00
2023-02-18T02:04:15.161Z,4.10
2023-02-18T02:07:18.644Z,3.60
2023-02-18T02:10:20.680Z,3.80
2023-02-18T02:13:50.150Z,3.90
2023-02-18T02:17:00.294Z,3.70
2023-02-18T02:20:30.492Z,3.30
2023-02-18T02:24:02.791Z,3.70
2023-02-18T02:27:21.792Z,3.00
2023-02-18T02:30:46.843Z,4.00
2023-02-18T02:34:16.019Z,3.50
2023-02-18T02:37:37.281Z,3.50
2023-02-18T02:40:47.436Z,3.50
2023-02-18T02:44:33.692Z,3.40
2023-02-18T02:47:59.724Z,3.70
2023-02-18T02:51:08.056Z,3.90
2023-02-18T02:54:17.436Z,3.40
2023-02-18T02:57:19.049Z,3.00
2023-02-18T03:03:52.459Z,2.70
2023-02-18T03:07:03.110Z,2.80
2023-02-18T03:10:28.055Z,2.90
2023-02-18T03:14:18.389Z,2.80
2023-02-18T03:17:30.864Z,3.10
2023-02-18T03:20:36.347Z,2.90
2023-02-18T03:23:42.454Z,2.50
2023-02-18T03:26:50.187Z,2.40
2023-02-18T03:29:56.780Z,2.60
2023-02-18T03:33:01.519Z,2.40
2023-02-18T03:36:03.578Z,2.40
2023-02-18T03:39:08.794Z,2.40
2023-02-18T03:42:13.620Z,2.50
2023-02-18T03:45:15.202Z,2.30
2023-02-18T03:51:18.383Z,2.20
2023-02-18T03:57:22.203Z,2.60
2023-02-18T04:00:26.985Z,2.40
2023-02-18T04:06:30.577Z,2.80
2023-02-18T04:09:32.136Z,3.30
2023-02-18T04:12:34.068Z,3.10
2023-02-18T04:15:35.705Z,2.50
2023-02-18T04:18:37.464Z,3.10
2023-02-18T04:24:40.512Z,3.50
2023-02-18T04:30:44.788Z,3.40
2023-02-18T04:33:46.421Z,3.40
2023-02-18T04:36:48.236Z,3.50
2023-02-18T04:39:49.776Z,4.20
2023-02-18T04:45:53.455Z,4.20
2023-02-18T04:48:55.015Z,3.30
2023-02-18T04:54:58.327Z,4.70
2023-02-18T04:58:00.096Z,3.60
2023-02-18T05:01:03.179Z,3.80
2023-02-18T05:04:04.830Z,4.50
2023-02-18T05:10:09.804Z,3.40
2023-02-18T05:13:11.452Z,3.80
2023-02-18T05:19:15.607Z,3.80
2023-02-18T05:22:17.333Z,3.70
2023-02-18T05:28:20.478Z,3.40
2023-02-18T05:34:23.705Z,3.70
2023-02-18T05:37:25.771Z,3.80
2023-02-18T05:43:28.983Z,3.80
2023-02-18T05:49:33.405Z,3.10
2023-02-18T05:52:35.147Z,2.60
2023-02-18T05:55:36.877Z,3.10
2023-02-18T06:01:40.289Z,2.80
2023-02-18T06:04:41.939Z,2.70
2023-02-18T06:10:45.099Z,3.00
2023-02-18T06:13:47.068Z,2.80
2023-02-18T06:16:48.826Z,2.70
2023-02-18T06:19:50.358Z,3.00
2023-02-18T06:25:53.380Z,3.50
2023-02-18T06:31:56.432Z,3.20
2023-02-18T06:34:58.631Z,3.10
2023-02-18T06:38:00.267Z,3.10
2023-02-18T06:47:05.353Z,3.50
2023-02-18T06:53:09.285Z,2.90
2023-02-18T06:56:11.373Z,2.60
2023-02-18T06:59:13.258Z,2.60
2023-02-18T07:02:15.061Z,2.70
2023-02-18T07:05:16.992Z,2.50
2023-02-18T07:08:18.661Z,2.50
2023-02-18T07:14:22.082Z,2.60
2023-02-18T07:17:23.708Z,3.00
2023-02-18T07:20:26.133Z,2.20
2023-02-18T07:23:27.916Z,2.60
2023-02-18T07:26:29.550Z,2.80
2023-02-18T07:29:31.149Z,2.70
2023-02-18T07:35:34.482Z,3.00
2023-02-18T07:38:36.052Z,3.50
2023-02-18T07:44:39.289Z,2.50
2023-02-18T07:50:44.489Z,2.90
2023-02-18T07:53:46.026Z,2.70
2023-02-18T07:59:49.084Z,2.70
2023-02-18T08:02:50.656Z,2.50
2023-02-18T08:05:52.829Z,3.00
2023-02-18T08:08:54.488Z,3.10
2023-02-18T08:14:58.006Z,2.90
2023-02-18T08:21:01.148Z,2.60
2023-02-18T08:24:02.976Z,2.60
2023-02-18T08:27:04.747Z,2.90
2023-02-18T08:30:07.241Z,2.70
2023-02-18T08:33:10.037Z,2.40
2023-02-18T08:36:11.619Z,2.80
2023-02-18T08:39:13.310Z,2.70
2023-02-18T08:42:15.306Z,2.80
2023-02-18T08:45:17.035Z,2.20
2023-02-18T08:48:20.512Z,2.40
2023-02-18T08:51:23.208Z,2.70
2023-02-18T08:54:25.001Z,2.40
2023-02-18T08:57:28.034Z,2.80
2023-02-18T09:00:29.646Z,2.80
2023-02-18T09:03:31.406Z,3.00
2023-02-18T09:06:37.383Z,3.10
2023-02-18T09:09:38.974Z,2.60
2023-02-18T09:15:42.298Z,2.90
2023-02-18T09:18:45.168Z,3.50
2023-02-18T09:21:46.748Z,3.40
2023-02-18T09:24:48.436Z,3.30
2023-02-18T09:27:50.118Z,4.00
2023-02-18T09:34:02.911Z,3.50
2023-02-18T09:37:04.751Z,3.90
2023-02-18T09:40:07.027Z,3.80
2023-02-18T09:43:19.417Z,3.30
2023-02-18T09:46:34.744Z,3.00
2023-02-18T09:49:39.419Z,3.10
2023-02-18T09:52:41.136Z,3.50
2023-02-18T09:55:43.612Z,3.60
2023-02-18T09:58:47.307Z,3.90
2023-02-18T10:01:50.796Z,3.20
2023-02-18T10:04:52.616Z,3.20
2023-02-18T10:07:58.780Z,3.10
2023-02-18T10:11:00.318Z,3.30
2023-02-18T10:17:04.327Z,3.90
2023-02-18T10:20:08.453Z,3.20
2023-02-18T10:23:11.446Z,5.10
2023-02-18T10:26:16.786Z,3.90
2023-02-18T10:29:21.898Z,3.90
2023-02-18T10:32:27.514Z,3.60
2023-02-18T10:35:53.085Z,3.50
2023-02-18T10:39:10.560Z,3.70
2023-02-18T10:42:32.018Z,3.40
2023-02-18T10:45:42.706Z,3.60
2023-02-18T10:48:59.991Z,3.40
2023-02-18T10:52:03.824Z,3.40
2023-02-18T10:55:08.301Z,2.90
2023-02-18T10:58:25.339Z,3.50
2023-02-18T11:01:27.018Z,4.00
2023-02-18T11:04:37.161Z,4.00
2023-02-18T11:07:38.934Z,3.20
2023-02-18T11:10:42.834Z,3.50
2023-02-18T11:13:44.422Z,3.40
2023-02-18T11:16:47.028Z,3.60
2023-02-18T11:19:54.730Z,3.90
2023-02-18T11:23:19.693Z,4.00
2023-02-18T11:26:35.556Z,3.70
2023-02-18T11:29:37.386Z,3.60
2023-02-18T11:32:39.120Z,3.30
2023-02-18T11:35:52.323Z,3.30
2023-02-18T11:39:04.109Z,3.40
2023-02-18T11:42:06.491Z,3.60
2023-02-18T11:45:27.099Z,3.60
2023-02-18T11:48:28.887Z,3.50
2023-02-18T11:51:35.436Z,4.10
2023-02-18T11:54:37.313Z,3.90
2023-02-18T11:57:42.478Z,3.80
2023-02-18T12:00:45.369Z,3.70
2023-02-18T12:03:48.595Z,3.50
2023-02-18T12:07:01.507Z,3.60
2023-02-18T12:10:12.482Z,3.80
2023-02-18T12:13:34.214Z,3.90
2023-02-18T12:16:54.937Z,3.70
2023-02-18T12:20:18.378Z,3.60
2023-02-18T12:23:26.746Z,4.00
2023-02-18T12:26:53.078Z,3.60
2023-02-18T12:30:20.938Z,3.40
2023-02-18T12:33:25.312Z,3.60
2023-02-18T12:36:42.160Z,3.40
2023-02-18T12:39:52.953Z,3.70
2023-02-18T12:43:04.139Z,3.50
2023-02-18T12:46:22.486Z,3.40
2023-02-18T12:49:42.826Z,3.70
2023-02-18T12:53:22.966Z,3.60
2023-02-18T12:56:30.717Z,3.50
2023-02-18T13:00:03.876Z,3.80
2023-02-18T13:03:33.398Z,4.00
2023-02-18T13:07:00.245Z,5.40
2023-02-18T13:10:38.950Z,3.90
2023-02-18T13:13:53.231Z,3.90
2023-02-18T13:16:57.320Z,3.90
2023-02-18T13:20:09.955Z,4.00
2023-02-18T13:23:28.519Z,4.30
2023-02-18T13:26:31.855Z,3.60
2023-02-18T13:30:00.772Z,3.70
2023-02-18T13:33:11.673Z,3.80
2023-02-18T13:36:41.392Z,4.00
2023-02-18T13:39:55.458Z,4.10
2023-02-18T13:43:27.978Z,3.90
2023-02-18T13:46:29.729Z,4.00
2023-02-18T13:49:36.495Z,4.30
2023-02-18T13:52:38.074Z,4.20
2023-02-18T13:58:42.971Z,4.80
2023-02-18T14:01:48.696Z,4.70
2023-02-18T14:05:16.659Z,5.10
2023-02-18T14:08:30.379Z,6.20
2023-02-18T14:11:40.594Z,5.20
2023-02-18T14:14:42.344Z,4.80
2023-02-18T14:18:07.969Z,4.80
2023-02-18T14:21:12.616Z,5.20
2023-02-18T14:24:44.454Z,5.80
2023-02-18T14:27:46.478Z,5.10
2023-02-18T14:30:48.241Z,5.00
2023-02-18T14:34:11.742Z,5.30
2023-02-18T14:37:38.170Z,4.90
2023-02-18T14:40:52.547Z,5.10
2023-02-18T14:44:16.728Z,5.10
2023-02-18T14:47:30.221Z,5.20
2023-02-18T14:50:35.447Z,5.40
2023-02-18T14:53:43.835Z,6.20
2023-02-18T14:56:57.832Z,5.90
2023-02-18T14:59:59.755Z,5.70
2023-02-18T15:03:02.492Z,5.70
2023-02-18T15:06:05.275Z,6.70
2023-02-18T15:09:18.406Z,5.70
2023-02-18T15:12:25.451Z,5.60
2023-02-18T15:15:27.320Z,6.80
2023-02-18T15:18:36.499Z,6.90
2023-02-18T15:21:42.303Z,7.10
2023-02-18T15:24:44.265Z,7.70
2023-02-18T15:27:45.855Z,6.90
2023-02-18T15:33:49.086Z,8.20
2023-02-18T15:39:52.716Z,8.30
2023-02-18T15:45:57.864Z,9.30
2023-02-18T15:49:00.656Z,9.00
2023-02-18T15:52:02.970Z,9.40
2023-02-18T15:55:11.592Z,10.70
2023-02-18T15:58:16.511Z,10.80
2023-02-18T16:01:29.060Z,12.50
2023-02-18T16:04:33.840Z,14.50
2023-02-18T16:07:51.696Z,18.10
2023-02-18T16:11:02.958Z,15.00
2023-02-18T16:14:05.107Z,17.40
2023-02-18T16:17:12.626Z,18.20
2023-02-18T16:20:30.826Z,17.90
2023-02-18T16:23:56.583Z,18.30
2023-02-18T16:26:59.084Z,17.20
2023-02-18T16:30:06.783Z,18.90
2023-02-18T16:33:08.469Z,16.80
2023-02-18T16:36:13.853Z,21.70
2023-02-18T16:39:15.340Z,26.80
2023-02-18T16:42:17.170Z,27.70
2023-02-18T16:45:19.905Z,24.70
2023-02-18T16:48:26.826Z,29.50
2023-02-18T16:51:33.294Z,23.60
2023-02-18T16:54:34.884Z,23.80
2023-02-18T16:57:36.403Z,22.60
2023-02-18T17:00:38.329Z,24.70
2023-02-18T17:03:39.993Z,25.10
2023-02-18T17:06:42.866Z,24.20
2023-02-18T17:09:44.441Z,26.80
2023-02-18T17:15:50.361Z,27.20
2023-02-18T17:18:52.273Z,25.30
2023-02-18T17:21:53.846Z,27.30
2023-02-18T17:24:55.555Z,29.10
2023-02-18T17:30:59.041Z,30.90
2023-02-18T17:37:03.046Z,32.90
2023-02-18T17:43:06.656Z,35.20
2023-02-18T17:46:16.391Z,34.30
2023-02-18T17:49:18.685Z,36.00
2023-02-18T17:52:29.686Z,49.80
2023-02-18T17:55:33.043Z,53.60
2023-02-18T17:58:34.664Z,49.40
2023-02-18T18:04:38.143Z,59.10
2023-02-18T18:10:48.927Z,54.80
2023-02-18T18:13:52.228Z,53.30
2023-02-18T18:16:53.794Z,48.00
2023-02-18T18:22:59.045Z,37.90
2023-02-18T18:26:00.787Z,30.50
2023-02-18T18:29:02.365Z,21.80
2023-02-18T18:35:18.185Z,14.30
2023-02-18T18:38:21.436Z,14.20
2023-02-18T18:41:23.075Z,12.40
2023-02-18T18:47:26.116Z,14.60
2023-02-18T18:53:31.919Z,13.50
2023-02-18T18:56:33.428Z,13.30
2023-02-18T18:59:35.218Z,13.30
2023-02-18T19:02:37.043Z,13.10
2023-02-18T19:05:41.003Z,11.40
2023-02-18T19:08:43.049Z,11.50
2023-02-18T19:11:44.882Z,11.30
2023-02-18T19:17:50.764Z,12.20
2023-02-18T19:20:52.311Z,12.10
2023-02-18T19:26:55.333Z,11.60
2023-02-18T19:33:00.403Z,13.70
2023-02-18T19:36:07.751Z,14.10
2023-02-18T19:39:09.362Z,14.20
2023-02-18T19:42:10.913Z,12.50
2023-02-18T19:45:13.280Z,12.60
2023-02-18T19:48:15.752Z,11.60
2023-02-18T19:51:17.404Z,10.50
2023-02-18T19:57:20.638Z,10.20
2023-02-18T20:00:22.657Z,10.40
2023-02-18T20:03:24.452Z,9.40
2023-02-18T20:06:26.023Z,9.20
2023-02-18T20:12:29.018Z,8.20
2023-02-18T20:18:32.039Z,7.10
2023-02-18T20:24:35.124Z,5.90
2023-02-18T20:30:41.353Z,6.40
2023-02-18T20:33:43.149Z,6.60
2023-02-18T20:36:45.277Z,6.80
2023-02-18T20:39:46.891Z,6.80
2023-02-18T20:45:49.845Z,5.50
2023-02-18T20:51:53.068Z,4.90
2023-02-18T20:57:56.125Z,5.00
2023-02-18T21:04:00.158Z,5.30
2023-02-18T21:07:01.681Z,5.10
2023-02-18T21:13:04.752Z,5.80
2023-02-18T21:19:12.108Z,5.40
2023-02-18T21:22:13.764Z,5.80
2023-02-18T21:28:16.959Z,5.20
2023-02-18T21:31:39.699Z,5.10
2023-02-18T21:34:41.334Z,5.40
2023-02-18T21:40:45.049Z,4.60
2023-02-18T21:43:47.540Z,4.60
2023-02-18T21:46:49.185Z,4.40
2023-02-18T21:52:52.419Z,4.80
2023-02-18T21:59:05.344Z,5.90
2023-02-18T22:05:09.633Z,6.40
2023-02-18T22:08:11.166Z,6.40
2023-02-18T22:11:13.865Z,6.10
2023-02-18T22:17:17.153Z,4.60
2023-02-18T22:20:18.727Z,5.00
2023-02-18T22:26:21.953Z,5.30
2023-02-18T22:29:23.511Z,4.50
2023-02-18T22:35:26.757Z,5.40
2023-02-18T22:38:28.650Z,5.90
2023-02-18T22:41:31.560Z,6.60
2023-02-18T22:44:33.164Z,5.90
2023-02-18T22:50:36.164Z,6.40
2023-02-18T22:56:40.002Z,5.50
2023-02-18T22:59:41.550Z,5.80
2023-02-18T23:05:44.556Z,4.90
2023-02-18T23:14:53.711Z,4.90
2023-02-18T23:21:02.333Z,4.10
2023-02-18T23:24:04.907Z,3.90
2023-02-18T23:27:07.576Z,3.70
2023-02-18T23:30:10.211Z,3.80
2023-02-18T23:33:11.949Z,3.80
2023-02-18T23:39:18.756Z,3.80
2023-02-18T23:42:20.448Z,4.10
2023-02-18T23:45:22.229Z,4.10
2023-02-18T23:48:23.846Z,5.40
2023-02-18T23:54:27.038Z,6.50
